sensor_id;sensor_type;location;lat;lon;timestamp;temperature;humidity
16315;DHT22;8266;52.150;4.768;2023-04-10T00:00:35;12.90;99.90
16315;DHT22;8266;52.150;4.768;2023-04-10T00:03:03;12.90;99.90
16315;DHT22;8266;52.150;4.768;2023-04-10T00:05:32;12.90;99.90
16315;DHT22;8266;52.150;4.768;2023-04-10T00:07:59;12.90;99.90
16315;DHT22;8266;52.150;4.768;2023-04-10T00:10:27;12.80;99.90
16315;DHT22;8266;52.150;4.768;2023-04-10T00:12:56;12.80;99.90
16315;DHT22;8266;52.150;4.768;2023-04-10T00:15:25;12.80;99.90
16315;DHT22;8266;52.150;4.768;2023-04-10T00:17:53;12.80;99.90
16315;DHT22;8266;52.150;4.768;2023-04-10T00:20:20;12.80;99.90
16315;DHT22;8266;52.150;4.768;2023-04-10T00:22:49;12.70;99.90
16315;DHT22;8266;52.150;4.768;2023-04-10T00:25:16;12.70;99.90
16315;DHT22;8266;52.150;4.768;2023-04-10T00:27:43;12.70;99.90
16315;DHT22;8266;52.150;4.768;2023-04-10T00:30:10;12.70;99.90
16315;DHT22;8266;52.150;4.768;2023-04-10T00:32:37;12.60;99.90
16315;DHT22;8266;52.150;4.768;2023-04-10T00:35:06;12.60;99.90
16315;DHT22;8266;52.150;4.768;2023-04-10T00:37:34;12.60;99.90
16315;DHT22;8266;52.150;4.768;2023-04-10T00:40:03;12.60;99.90
16315;DHT22;8266;52.150;4.768;2023-04-10T00:42:31;12.50;99.90
16315;DHT22;8266;52.150;4.768;2023-04-10T00:44:58;12.50;99.90
16315;DHT22;8266;52.150;4.768;2023-04-10T00:47:26;12.60;99.90
16315;DHT22;8266;52.150;4.768;2023-04-10T00:49:53;12.50;99.90
16315;DHT22;8266;52.150;4.768;2023-04-10T00:52:20;12.50;99.90
16315;DHT22;8266;52.150;4.768;2023-04-10T00:54:47;12.50;99.90
16315;DHT22;8266;52.150;4.768;2023-04-10T00:57:16;12.50;99.90
16315;DHT22;8266;52.150;4.768;2023-04-10T00:59:44;12.40;99.90
16315;DHT22;8266;52.150;4.768;2023-04-10T01:02:12;12.50;99.90
16315;DHT22;8266;52.150;4.768;2023-04-10T01:04:40;12.40;99.90
16315;DHT22;8266;52.150;4.768;2023-04-10T01:07:11;12.40;99.90
16315;DHT22;8266;52.150;4.768;2023-04-10T01:09:47;12.40;99.90
16315;DHT22;8266;52.150;4.768;2023-04-10T01:12:37;12.40;99.90
16315;DHT22;8266;52.150;4.768;2023-04-10T01:15:10;12.40;99.90
16315;DHT22;8266;52.150;4.768;2023-04-10T01:17:44;12.30;99.90
16315;DHT22;8266;52.150;4.768;2023-04-10T01:20:19;12.30;99.90
16315;DHT22;8266;52.150;4.768;2023-04-10T01:22:58;12.30;99.90
16315;DHT22;8266;52.150;4.768;2023-04-10T01:25:38;12.20;99.90
16315;DHT22;8266;52.150;4.768;2023-04-10T01:28:42;12.20;99.90
16315;DHT22;8266;52.150;4.768;2023-04-10T01:31:16;12.20;99.90
16315;DHT22;8266;52.150;4.768;2023-04-10T01:33:48;12.10;99.90
16315;DHT22;8266;52.150;4.768;2023-04-10T01:36:20;12.10;99.90
16315;DHT22;8266;52.150;4.768;2023-04-10T01:38:48;12.10;99.90
16315;DHT22;8266;52.150;4.768;2023-04-10T01:41:18;12.00;99.90
16315;DHT22;8266;52.150;4.768;2023-04-10T01:43:48;11.90;99.90
16315;DHT22;8266;52.150;4.768;2023-04-10T01:46:18;11.90;99.90
16315;DHT22;8266;52.150;4.768;2023-04-10T01:48:45;11.90;99.90
16315;DHT22;8266;52.150;4.768;2023-04-10T01:51:14;11.90;99.90
16315;DHT22;8266;52.150;4.768;2023-04-10T01:53:42;11.80;99.90
16315;DHT22;8266;52.150;4.768;2023-04-10T01:56:10;11.80;99.90
16315;DHT22;8266;52.150;4.768;2023-04-10T01:58:38;11.70;99.90
16315;DHT22;8266;52.150;4.768;2023-04-10T02:01:06;11.70;99.90
16315;DHT22;8266;52.150;4.768;2023-04-10T02:03:34;11.70;99.90
16315;DHT22;8266;52.150;4.768;2023-04-10T02:06:10;11.70;99.90
16315;DHT22;8266;52.150;4.768;2023-04-10T02:08:42;11.60;99.90
16315;DHT22;8266;52.150;4.768;2023-04-10T02:11:20;11.60;99.90
16315;DHT22;8266;52.150;4.768;2023-04-10T02:13:52;11.60;99.90
16315;DHT22;8266;52.150;4.768;2023-04-10T02:16:21;11.60;99.90
16315;DHT22;8266;52.150;4.768;2023-04-10T02:18:49;11.60;99.90
16315;DHT22;8266;52.150;4.768;2023-04-10T02:21:17;11.60;99.90
16315;DHT22;8266;52.150;4.768;2023-04-10T02:23:45;11.50;99.90
16315;DHT22;8266;52.150;4.768;2023-04-10T02:26:12;11.60;99.90
16315;DHT22;8266;52.150;4.768;2023-04-10T02:28:39;11.60;99.90
16315;DHT22;8266;52.150;4.768;2023-04-10T02:31:06;11.50;99.90
16315;DHT22;8266;52.150;4.768;2023-04-10T02:33:35;11.50;99.90
16315;DHT22;8266;52.150;4.768;2023-04-10T02:36:02;11.50;99.90
16315;DHT22;8266;52.150;4.768;2023-04-10T02:38:29;11.50;99.90
16315;DHT22;8266;52.150;4.768;2023-04-10T02:40:56;11.50;99.90
16315;DHT22;8266;52.150;4.768;2023-04-10T02:43:23;11.50;99.90
16315;DHT22;8266;52.150;4.768;2023-04-10T02:45:50;11.50;99.90
16315;DHT22;8266;52.150;4.768;2023-04-10T02:48:17;11.50;99.90
16315;DHT22;8266;52.150;4.768;2023-04-10T02:50:46;11.50;99.90
16315;DHT22;8266;52.150;4.768;2023-04-10T02:53:14;11.50;99.90
16315;DHT22;8266;52.150;4.768;2023-04-10T02:55:41;11.50;99.90
16315;DHT22;8266;52.150;4.768;2023-04-10T02:58:08;11.50;99.90
16315;DHT22;8266;52.150;4.768;2023-04-10T03:00:36;11.50;99.90
16315;DHT22;8266;52.150;4.768;2023-04-10T03:03:04;11.50;99.90
16315;DHT22;8266;52.150;4.768;2023-04-10T03:05:31;11.50;99.90
16315;DHT22;8266;52.150;4.768;2023-04-10T03:07:59;11.40;99.90
16315;DHT22;8266;52.150;4.768;2023-04-10T03:10:26;11.40;99.90
16315;DHT22;8266;52.150;4.768;2023-04-10T03:12:53;11.40;99.90
16315;DHT22;8266;52.150;4.768;2023-04-10T03:15:20;11.40;99.90
16315;DHT22;8266;52.150;4.768;2023-04-10T03:17:47;11.40;99.90
16315;DHT22;8266;52.150;4.768;2023-04-10T03:20:14;11.40;99.90
16315;DHT22;8266;52.150;4.768;2023-04-10T03:22:41;11.40;99.90
16315;DHT22;8266;52.150;4.768;2023-04-10T03:25:10;11.40;99.90
16315;DHT22;8266;52.150;4.768;2023-04-10T03:27:37;11.40;99.90
16315;DHT22;8266;52.150;4.768;2023-04-10T03:30:06;11.40;99.90
16315;DHT22;8266;52.150;4.768;2023-04-10T03:32:33;11.40;99.90
16315;DHT22;8266;52.150;4.768;2023-04-10T03:35:00;11.40;99.90
16315;DHT22;8266;52.150;4.768;2023-04-10T03:37:27;11.30;99.90
16315;DHT22;8266;52.150;4.768;2023-04-10T03:39:55;11.30;99.90
16315;DHT22;8266;52.150;4.768;2023-04-10T03:42:23;11.30;99.90
16315;DHT22;8266;52.150;4.768;2023-04-10T03:44:50;11.30;99.90
16315;DHT22;8266;52.150;4.768;2023-04-10T03:47:17;11.30;99.90
16315;DHT22;8266;52.150;4.768;2023-04-10T03:49:44;11.30;99.90
16315;DHT22;8266;52.150;4.768;2023-04-10T03:52:11;11.30;99.90
16315;DHT22;8266;52.150;4.768;2023-04-10T03:54:40;11.30;99.90
16315;DHT22;8266;52.150;4.768;2023-04-10T03:57:07;11.30;99.90
16315;DHT22;8266;52.150;4.768;2023-04-10T03:59:35;11.30;99.90
16315;DHT22;8266;52.150;4.768;2023-04-10T04:02:02;11.30;99.90
16315;DHT22;8266;52.150;4.768;2023-04-10T04:04:30;11.30;99.90
16315;DHT22;8266;52.150;4.768;2023-04-10T04:06:57;11.30;99.90
16315;DHT22;8266;52.150;4.768;2023-04-10T04:09:24;11.30;99.90
16315;DHT22;8266;52.150;4.768;2023-04-10T04:11:51;11.30;99.90
16315;DHT22;8266;52.150;4.768;2023-04-10T04:14:18;11.40;99.90
16315;DHT22;8266;52.150;4.768;2023-04-10T04:16:47;11.40;99.90
16315;DHT22;8266;52.150;4.768;2023-04-10T04:19:14;11.40;99.90
16315;DHT22;8266;52.150;4.768;2023-04-10T04:21:41;11.40;99.90
16315;DHT22;8266;52.150;4.768;2023-04-10T04:24:08;11.40;99.90
16315;DHT22;8266;52.150;4.768;2023-04-10T04:26:35;11.40;99.90
16315;DHT22;8266;52.150;4.768;2023-04-10T04:29:02;11.50;99.90
16315;DHT22;8266;52.150;4.768;2023-04-10T04:31:29;11.50;99.90
16315;DHT22;8266;52.150;4.768;2023-04-10T04:33:59;11.50;99.90
16315;DHT22;8266;52.150;4.768;2023-04-10T04:36:26;11.50;99.90
16315;DHT22;8266;52.150;4.768;2023-04-10T04:38:53;11.50;99.90
16315;DHT22;8266;52.150;4.768;2023-04-10T04:41:20;11.50;99.90
16315;DHT22;8266;52.150;4.768;2023-04-10T04:43:47;11.50;99.90
16315;DHT22;8266;52.150;4.768;2023-04-10T04:46:17;11.40;99.90
16315;DHT22;8266;52.150;4.768;2023-04-10T04:48:44;11.40;99.90
16315;DHT22;8266;52.150;4.768;2023-04-10T04:51:13;11.40;99.90
16315;DHT22;8266;52.150;4.768;2023-04-10T04:53:40;11.40;99.90
16315;DHT22;8266;52.150;4.768;2023-04-10T04:56:07;11.40;99.90
16315;DHT22;8266;52.150;4.768;2023-04-10T04:58:37;11.30;99.90
16315;DHT22;8266;52.150;4.768;2023-04-10T05:01:05;11.30;99.90
16315;DHT22;8266;52.150;4.768;2023-04-10T05:03:32;11.30;99.90
16315;DHT22;8266;52.150;4.768;2023-04-10T05:05:59;11.20;99.90
16315;DHT22;8266;52.150;4.768;2023-04-10T05:08:27;11.20;99.90
16315;DHT22;8266;52.150;4.768;2023-04-10T05:10:55;11.20;99.90
16315;DHT22;8266;52.150;4.768;2023-04-10T05:13:22;11.20;99.90
16315;DHT22;8266;52.150;4.768;2023-04-10T05:15:49;11.20;99.90
16315;DHT22;8266;52.150;4.768;2023-04-10T05:18:17;11.20;99.90
16315;DHT22;8266;52.150;4.768;2023-04-10T05:20:48;11.20;99.90
16315;DHT22;8266;52.150;4.768;2023-04-10T05:23:15;11.20;99.90
16315;DHT22;8266;52.150;4.768;2023-04-10T05:25:44;11.20;99.90
16315;DHT22;8266;52.150;4.768;2023-04-10T05:28:11;11.20;99.90
16315;DHT22;8266;52.150;4.768;2023-04-10T05:30:38;11.20;99.90
16315;DHT22;8266;52.150;4.768;2023-04-10T05:33:05;11.20;99.90
16315;DHT22;8266;52.150;4.768;2023-04-10T05:35:32;11.10;99.90
16315;DHT22;8266;52.150;4.768;2023-04-10T05:37:59;11.10;99.90
16315;DHT22;8266;52.150;4.768;2023-04-10T05:40:27;11.20;99.90
16315;DHT22;8266;52.150;4.768;2023-04-10T05:42:56;11.20;99.90
16315;DHT22;8266;52.150;4.768;2023-04-10T05:45:23;11.20;99.90
16315;DHT22;8266;52.150;4.768;2023-04-10T05:47:50;11.20;99.90
16315;DHT22;8266;52.150;4.768;2023-04-10T05:50:17;11.20;99.90
16315;DHT22;8266;52.150;4.768;2023-04-10T05:52:44;11.20;99.90
16315;DHT22;8266;52.150;4.768;2023-04-10T05:55:11;11.20;99.90
16315;DHT22;8266;52.150;4.768;2023-04-10T05:57:38;11.30;99.90
16315;DHT22;8266;52.150;4.768;2023-04-10T06:00:08;11.30;99.90
16315;DHT22;8266;52.150;4.768;2023-04-10T06:02:36;11.20;99.90
16315;DHT22;8266;52.150;4.768;2023-04-10T06:05:04;11.30;99.90
16315;DHT22;8266;52.150;4.768;2023-04-10T06:07:31;11.20;99.90
16315;DHT22;8266;52.150;4.768;2023-04-10T06:09:58;11.20;99.90
16315;DHT22;8266;52.150;4.768;2023-04-10T06:12:25;11.30;99.90
16315;DHT22;8266;52.150;4.768;2023-04-10T06:14:52;11.20;99.90
16315;DHT22;8266;52.150;4.768;2023-04-10T06:17:21;11.30;99.90
16315;DHT22;8266;52.150;4.768;2023-04-10T06:19:50;11.30;99.90
16315;DHT22;8266;52.150;4.768;2023-04-10T06:22:17;11.30;99.90
16315;DHT22;8266;52.150;4.768;2023-04-10T06:24:44;11.30;99.90
16315;DHT22;8266;52.150;4.768;2023-04-10T06:27:12;11.30;99.90
16315;DHT22;8266;52.150;4.768;2023-04-10T06:29:39;11.30;99.90
16315;DHT22;8266;52.150;4.768;2023-04-10T06:32:06;11.30;99.90
16315;DHT22;8266;52.150;4.768;2023-04-10T06:34:35;11.30;99.90
16315;DHT22;8266;52.150;4.768;2023-04-10T06:37:02;11.30;99.90
16315;DHT22;8266;52.150;4.768;2023-04-10T06:39:29;11.30;99.90
16315;DHT22;8266;52.150;4.768;2023-04-10T06:41:56;11.30;99.90
16315;DHT22;8266;52.150;4.768;2023-04-10T06:44:23;11.40;99.90
16315;DHT22;8266;52.150;4.768;2023-04-10T06:46:50;11.40;99.90
16315;DHT22;8266;52.150;4.768;2023-04-10T06:49:17;11.40;99.90
16315;DHT22;8266;52.150;4.768;2023-04-10T06:51:46;11.50;99.90
16315;DHT22;8266;52.150;4.768;2023-04-10T06:54:13;11.50;99.90
16315;DHT22;8266;52.150;4.768;2023-04-10T06:56:41;11.50;99.90
16315;DHT22;8266;52.150;4.768;2023-04-10T06:59:08;11.60;99.90
16315;DHT22;8266;52.150;4.768;2023-04-10T07:01:35;11.70;99.90
16315;DHT22;8266;52.150;4.768;2023-04-10T07:04:02;11.70;99.90
16315;DHT22;8266;52.150;4.768;2023-04-10T07:06:29;11.80;99.90
16315;DHT22;8266;52.150;4.768;2023-04-10T07:08:58;11.80;99.90
16315;DHT22;8266;52.150;4.768;2023-04-10T07:11:25;11.90;99.90
16315;DHT22;8266;52.150;4.768;2023-04-10T07:13:52;12.00;99.90
16315;DHT22;8266;52.150;4.768;2023-04-10T07:16:23;12.00;99.90
16315;DHT22;8266;52.150;4.768;2023-04-10T07:18:50;12.10;99.90
16315;DHT22;8266;52.150;4.768;2023-04-10T07:21:17;12.20;99.90
16315;DHT22;8266;52.150;4.768;2023-04-10T07:23:44;12.30;99.90
16315;DHT22;8266;52.150;4.768;2023-04-10T07:26:13;12.40;99.90
16315;DHT22;8266;52.150;4.768;2023-04-10T07:28:40;12.50;99.90
16315;DHT22;8266;52.150;4.768;2023-04-10T07:31:07;12.60;99.90
16315;DHT22;8266;52.150;4.768;2023-04-10T07:33:35;12.70;99.90
16315;DHT22;8266;52.150;4.768;2023-04-10T07:36:02;12.80;99.90
16315;DHT22;8266;52.150;4.768;2023-04-10T07:38:30;12.80;99.90
16315;DHT22;8266;52.150;4.768;2023-04-10T07:40:57;12.90;99.90
16315;DHT22;8266;52.150;4.768;2023-04-10T07:43:26;12.90;99.90
16315;DHT22;8266;52.150;4.768;2023-04-10T07:45:54;13.00;99.90
16315;DHT22;8266;52.150;4.768;2023-04-10T07:48:21;13.00;99.90
16315;DHT22;8266;52.150;4.768;2023-04-10T07:50:48;13.10;99.90
16315;DHT22;8266;52.150;4.768;2023-04-10T07:53:15;13.10;99.90
16315;DHT22;8266;52.150;4.768;2023-04-10T07:55:44;13.20;99.90
16315;DHT22;8266;52.150;4.768;2023-04-10T07:58:13;13.20;99.90
16315;DHT22;8266;52.150;4.768;2023-04-10T08:00:42;13.30;99.90
16315;DHT22;8266;52.150;4.768;2023-04-10T08:03:10;13.30;99.90
16315;DHT22;8266;52.150;4.768;2023-04-10T08:05:37;13.40;99.90
16315;DHT22;8266;52.150;4.768;2023-04-10T08:08:04;13.50;99.90
16315;DHT22;8266;52.150;4.768;2023-04-10T08:10:31;13.50;99.90
16315;DHT22;8266;52.150;4.768;2023-04-10T08:12:58;13.60;99.90
16315;DHT22;8266;52.150;4.768;2023-04-10T08:15:25;13.60;99.90
16315;DHT22;8266;52.150;4.768;2023-04-10T08:17:54;13.60;99.90
16315;DHT22;8266;52.150;4.768;2023-04-10T08:20:21;13.70;99.90
16315;DHT22;8266;52.150;4.768;2023-04-10T08:22:48;13.70;99.90
16315;DHT22;8266;52.150;4.768;2023-04-10T08:25:15;13.80;99.90
16315;DHT22;8266;52.150;4.768;2023-04-10T08:27:42;13.80;99.90
16315;DHT22;8266;52.150;4.768;2023-04-10T08:30:10;13.90;99.90
16315;DHT22;8266;52.150;4.768;2023-04-10T08:32:37;13.80;99.90
16315;DHT22;8266;52.150;4.768;2023-04-10T08:35:07;13.90;99.90
16315;DHT22;8266;52.150;4.768;2023-04-10T08:37:34;13.90;99.90
16315;DHT22;8266;52.150;4.768;2023-04-10T08:40:02;13.80;99.90
16315;DHT22;8266;52.150;4.768;2023-04-10T08:42:29;13.90;99.90
16315;DHT22;8266;52.150;4.768;2023-04-10T08:44:57;13.90;99.90
16315;DHT22;8266;52.150;4.768;2023-04-10T08:47:27;13.90;99.90
16315;DHT22;8266;52.150;4.768;2023-04-10T08:49:56;14.00;99.90
16315;DHT22;8266;52.150;4.768;2023-04-10T08:52:25;14.00;99.90
16315;DHT22;8266;52.150;4.768;2023-04-10T08:54:55;14.00;99.90
16315;DHT22;8266;52.150;4.768;2023-04-10T08:57:23;14.10;99.90
16315;DHT22;8266;52.150;4.768;2023-04-10T08:59:52;14.10;99.90
16315;DHT22;8266;52.150;4.768;2023-04-10T09:02:20;14.10;99.90
16315;DHT22;8266;52.150;4.768;2023-04-10T09:04:48;14.20;99.90
16315;DHT22;8266;52.150;4.768;2023-04-10T09:07:17;14.20;99.90
16315;DHT22;8266;52.150;4.768;2023-04-10T09:09:45;14.30;99.90
16315;DHT22;8266;52.150;4.768;2023-04-10T09:12:13;14.30;99.90
16315;DHT22;8266;52.150;4.768;2023-04-10T09:14:41;14.40;99.90
16315;DHT22;8266;52.150;4.768;2023-04-10T09:17:13;14.40;99.90
16315;DHT22;8266;52.150;4.768;2023-04-10T09:19:41;14.50;99.90
16315;DHT22;8266;52.150;4.768;2023-04-10T09:22:08;14.60;99.90
16315;DHT22;8266;52.150;4.768;2023-04-10T09:24:36;14.60;99.90
16315;DHT22;8266;52.150;4.768;2023-04-10T09:27:05;14.70;99.90
16315;DHT22;8266;52.150;4.768;2023-04-10T09:29:41;14.80;99.90
16315;DHT22;8266;52.150;4.768;2023-04-10T09:32:08;14.80;99.90
16315;DHT22;8266;52.150;4.768;2023-04-10T09:34:51;14.90;99.90
16315;DHT22;8266;52.150;4.768;2023-04-10T09:37:18;15.00;99.90
16315;DHT22;8266;52.150;4.768;2023-04-10T09:39:47;15.00;99.90
16315;DHT22;8266;52.150;4.768;2023-04-10T09:42:29;15.10;99.90
16315;DHT22;8266;52.150;4.768;2023-04-10T09:44:57;15.20;99.90
16315;DHT22;8266;52.150;4.768;2023-04-10T09:47:24;15.20;99.90
16315;DHT22;8266;52.150;4.768;2023-04-10T09:49:54;15.30;99.90
16315;DHT22;8266;52.150;4.768;2023-04-10T09:52:22;15.30;99.90
16315;DHT22;8266;52.150;4.768;2023-04-10T09:54:51;15.30;99.90
16315;DHT22;8266;52.150;4.768;2023-04-10T09:57:20;15.40;99.90
16315;DHT22;8266;52.150;4.768;2023-04-10T09:59:50;15.40;99.90
16315;DHT22;8266;52.150;4.768;2023-04-10T10:02:18;15.40;99.90
16315;DHT22;8266;52.150;4.768;2023-04-10T10:04:46;15.40;99.90
16315;DHT22;8266;52.150;4.768;2023-04-10T10:07:14;15.50;99.90
16315;DHT22;8266;52.150;4.768;2023-04-10T10:09:43;15.50;99.90
16315;DHT22;8266;52.150;4.768;2023-04-10T10:12:11;15.50;99.90
16315;DHT22;8266;52.150;4.768;2023-04-10T10:14:48;15.50;99.90
16315;DHT22;8266;52.150;4.768;2023-04-10T10:17:18;15.60;99.90
16315;DHT22;8266;52.150;4.768;2023-04-10T10:19:54;15.60;99.90
16315;DHT22;8266;52.150;4.768;2023-04-10T10:22:25;15.70;99.90
16315;DHT22;8266;52.150;4.768;2023-04-10T10:24:53;15.80;99.90
16315;DHT22;8266;52.150;4.768;2023-04-10T10:27:22;15.80;99.90
16315;DHT22;8266;52.150;4.768;2023-04-10T10:29:52;15.90;99.90
16315;DHT22;8266;52.150;4.768;2023-04-10T10:32:20;16.00;99.90
16315;DHT22;8266;52.150;4.768;2023-04-10T10:34:48;16.10;99.90
16315;DHT22;8266;52.150;4.768;2023-04-10T10:37:17;16.20;99.90
16315;DHT22;8266;52.150;4.768;2023-04-10T10:39:52;16.40;99.90
16315;DHT22;8266;52.150;4.768;2023-04-10T10:42:29;16.60;99.90
16315;DHT22;8266;52.150;4.768;2023-04-10T10:45:05;16.80;99.90
16315;DHT22;8266;52.150;4.768;2023-04-10T10:47:39;17.00;99.90
16315;DHT22;8266;52.150;4.768;2023-04-10T10:50:06;17.20;99.90
16315;DHT22;8266;52.150;4.768;2023-04-10T10:52:44;17.40;99.90
16315;DHT22;8266;52.150;4.768;2023-04-10T10:55:32;17.60;99.90
16315;DHT22;8266;52.150;4.768;2023-04-10T10:58:03;17.70;99.90
16315;DHT22;8266;52.150;4.768;2023-04-10T11:03:41;18.00;99.90
16315;DHT22;8266;52.150;4.768;2023-04-10T11:06:10;18.10;99.90
16315;DHT22;8266;52.150;4.768;2023-04-10T11:08:44;18.20;99.90
16315;DHT22;8266;52.150;4.768;2023-04-10T11:11:14;18.30;99.90
16315;DHT22;8266;52.150;4.768;2023-04-10T11:14:14;18.40;99.90
16315;DHT22;8266;52.150;4.768;2023-04-10T11:16:46;18.50;99.90
16315;DHT22;8266;52.150;4.768;2023-04-10T11:19:15;18.50;99.90
16315;DHT22;8266;52.150;4.768;2023-04-10T11:22:06;18.60;99.90
16315;DHT22;8266;52.150;4.768;2023-04-10T11:24:57;18.60;99.90
16315;DHT22;8266;52.150;4.768;2023-04-10T11:27:38;18.60;99.90
16315;DHT22;8266;52.150;4.768;2023-04-10T11:30:27;18.70;99.90
16315;DHT22;8266;52.150;4.768;2023-04-10T11:32:55;18.80;99.90
16315;DHT22;8266;52.150;4.768;2023-04-10T11:35:24;18.80;99.90
16315;DHT22;8266;52.150;4.768;2023-04-10T11:38:10;18.90;99.90
16315;DHT22;8266;52.150;4.768;2023-04-10T11:40:55;19.00;99.90
16315;DHT22;8266;52.150;4.768;2023-04-10T11:43:23;19.00;99.90
16315;DHT22;8266;52.150;4.768;2023-04-10T11:45:57;19.00;99.90
16315;DHT22;8266;52.150;4.768;2023-04-10T11:48:24;19.10;99.90
16315;DHT22;8266;52.150;4.768;2023-04-10T11:50:53;19.10;99.90
16315;DHT22;8266;52.150;4.768;2023-04-10T11:53:20;19.20;99.90
16315;DHT22;8266;52.150;4.768;2023-04-10T11:55:48;19.10;99.90
16315;DHT22;8266;52.150;4.768;2023-04-10T11:58:23;19.10;99.90
16315;DHT22;8266;52.150;4.768;2023-04-10T12:00:58;19.10;99.90
16315;DHT22;8266;52.150;4.768;2023-04-10T12:03:36;19.00;99.90
16315;DHT22;8266;52.150;4.768;2023-04-10T12:06:07;19.00;99.90
16315;DHT22;8266;52.150;4.768;2023-04-10T12:08:36;19.00;99.90
16315;DHT22;8266;52.150;4.768;2023-04-10T12:11:04;18.90;99.90
16315;DHT22;8266;52.150;4.768;2023-04-10T12:13:32;18.90;99.90
16315;DHT22;8266;52.150;4.768;2023-04-10T12:16:00;18.80;99.90
16315;DHT22;8266;52.150;4.768;2023-04-10T12:18:27;18.70;99.90
16315;DHT22;8266;52.150;4.768;2023-04-10T12:20:55;18.70;99.90
16315;DHT22;8266;52.150;4.768;2023-04-10T12:23:25;18.60;99.90
16315;DHT22;8266;52.150;4.768;2023-04-10T12:26:02;18.60;99.90
16315;DHT22;8266;52.150;4.768;2023-04-10T12:28:32;18.60;99.90
16315;DHT22;8266;52.150;4.768;2023-04-10T12:30:59;18.50;99.90
16315;DHT22;8266;52.150;4.768;2023-04-10T12:33:27;18.50;99.90
16315;DHT22;8266;52.150;4.768;2023-04-10T12:35:55;18.40;99.90
16315;DHT22;8266;52.150;4.768;2023-04-10T12:38:37;18.40;99.90
16315;DHT22;8266;52.150;4.768;2023-04-10T12:41:05;18.40;99.90
16315;DHT22;8266;52.150;4.768;2023-04-10T12:43:35;18.30;99.90
16315;DHT22;8266;52.150;4.768;2023-04-10T12:46:03;18.30;99.90
16315;DHT22;8266;52.150;4.768;2023-04-10T12:48:31;18.30;99.90
16315;DHT22;8266;52.150;4.768;2023-04-10T12:50:58;18.30;99.90
16315;DHT22;8266;52.150;4.768;2023-04-10T12:53:25;18.20;99.90
16315;DHT22;8266;52.150;4.768;2023-04-10T12:55:58;18.20;99.90
16315;DHT22;8266;52.150;4.768;2023-04-10T12:58:26;18.20;99.90
16315;DHT22;8266;52.150;4.768;2023-04-10T13:00:57;18.10;99.90
16315;DHT22;8266;52.150;4.768;2023-04-10T13:03:25;18.00;99.90
16315;DHT22;8266;52.150;4.768;2023-04-10T13:05:52;18.10;99.90
16315;DHT22;8266;52.150;4.768;2023-04-10T13:08:20;18.00;99.90
16315;DHT22;8266;52.150;4.768;2023-04-10T13:10:48;18.00;99.90
16315;DHT22;8266;52.150;4.768;2023-04-10T13:13:16;17.90;99.90
16315;DHT22;8266;52.150;4.768;2023-04-10T13:15:43;17.90;99.90
16315;DHT22;8266;52.150;4.768;2023-04-10T13:18:10;17.80;99.90
16315;DHT22;8266;52.150;4.768;2023-04-10T13:20:38;17.80;99.90
16315;DHT22;8266;52.150;4.768;2023-04-10T13:23:06;17.70;99.90
16315;DHT22;8266;52.150;4.768;2023-04-10T13:25:36;17.60;99.90
16315;DHT22;8266;52.150;4.768;2023-04-10T13:28:04;17.50;99.90
16315;DHT22;8266;52.150;4.768;2023-04-10T13:30:37;17.40;99.90
16315;DHT22;8266;52.150;4.768;2023-04-10T13:33:04;17.30;99.90
16315;DHT22;8266;52.150;4.768;2023-04-10T13:35:31;17.20;99.90
16315;DHT22;8266;52.150;4.768;2023-04-10T13:37:59;17.10;99.90
16315;DHT22;8266;52.150;4.768;2023-04-10T13:40:27;17.00;99.90
16315;DHT22;8266;52.150;4.768;2023-04-10T13:42:54;17.00;99.90
16315;DHT22;8266;52.150;4.768;2023-04-10T13:45:21;16.90;99.90
16315;DHT22;8266;52.150;4.768;2023-04-10T13:47:49;17.00;99.90
16315;DHT22;8266;52.150;4.768;2023-04-10T13:50:17;16.90;99.90
16315;DHT22;8266;52.150;4.768;2023-04-10T13:52:44;16.90;99.90
16315;DHT22;8266;52.150;4.768;2023-04-10T13:55:11;16.90;99.90
16315;DHT22;8266;52.150;4.768;2023-04-10T13:57:38;16.90;99.90
16315;DHT22;8266;52.150;4.768;2023-04-10T14:00:06;16.80;99.90
16315;DHT22;8266;52.150;4.768;2023-04-10T14:02:35;16.80;99.90
16315;DHT22;8266;52.150;4.768;2023-04-10T14:05:04;16.70;99.90
16315;DHT22;8266;52.150;4.768;2023-04-10T14:07:32;16.70;99.90
16315;DHT22;8266;52.150;4.768;2023-04-10T14:09:59;16.70;99.90
16315;DHT22;8266;52.150;4.768;2023-04-10T14:12:27;16.60;99.90
16315;DHT22;8266;52.150;4.768;2023-04-10T14:14:54;16.60;99.90
16315;DHT22;8266;52.150;4.768;2023-04-10T14:17:21;16.50;99.90
16315;DHT22;8266;52.150;4.768;2023-04-10T14:19:49;16.50;99.90
16315;DHT22;8266;52.150;4.768;2023-04-10T14:22:23;16.40;99.90
16315;DHT22;8266;52.150;4.768;2023-04-10T14:24:50;16.40;99.90
16315;DHT22;8266;52.150;4.768;2023-04-10T14:27:17;16.40;99.90
16315;DHT22;8266;52.150;4.768;2023-04-10T14:29:45;16.30;99.90
16315;DHT22;8266;52.150;4.768;2023-04-10T14:32:12;16.20;99.90
16315;DHT22;8266;52.150;4.768;2023-04-10T14:34:39;16.20;99.90
16315;DHT22;8266;52.150;4.768;2023-04-10T14:37:06;16.10;99.90
16315;DHT22;8266;52.150;4.768;2023-04-10T14:39:35;16.10;99.90
16315;DHT22;8266;52.150;4.768;2023-04-10T14:42:02;16.00;99.90
16315;DHT22;8266;52.150;4.768;2023-04-10T14:44:29;16.00;99.90
16315;DHT22;8266;52.150;4.768;2023-04-10T14:46:56;15.90;99.90
16315;DHT22;8266;52.150;4.768;2023-04-10T14:49:24;15.90;99.90
16315;DHT22;8266;52.150;4.768;2023-04-10T14:51:51;15.80;99.90
16315;DHT22;8266;52.150;4.768;2023-04-10T14:54:18;15.80;99.90
16315;DHT22;8266;52.150;4.768;2023-04-10T14:56:48;15.70;99.90
16315;DHT22;8266;52.150;4.768;2023-04-10T14:59:15;15.60;99.90
16315;DHT22;8266;52.150;4.768;2023-04-10T15:01:42;15.60;99.90
16315;DHT22;8266;52.150;4.768;2023-04-10T15:04:10;15.60;99.90
16315;DHT22;8266;52.150;4.768;2023-04-10T15:06:37;15.50;99.90
16315;DHT22;8266;52.150;4.768;2023-04-10T15:09:04;15.50;99.90
16315;DHT22;8266;52.150;4.768;2023-04-10T15:11:31;15.40;99.90
16315;DHT22;8266;52.150;4.768;2023-04-10T15:14:00;15.40;99.90
16315;DHT22;8266;52.150;4.768;2023-04-10T15:16:27;15.40;99.90
16315;DHT22;8266;52.150;4.768;2023-04-10T15:18:55;15.30;99.90
16315;DHT22;8266;52.150;4.768;2023-04-10T15:21:22;15.30;99.90
16315;DHT22;8266;52.150;4.768;2023-04-10T15:23:49;15.30;99.90
16315;DHT22;8266;52.150;4.768;2023-04-10T15:26:16;15.30;99.90
16315;DHT22;8266;52.150;4.768;2023-04-10T15:28:43;15.20;99.90
16315;DHT22;8266;52.150;4.768;2023-04-10T15:31:12;15.20;99.90
16315;DHT22;8266;52.150;4.768;2023-04-10T15:33:39;15.20;99.90
16315;DHT22;8266;52.150;4.768;2023-04-10T15:36:07;15.20;99.90
16315;DHT22;8266;52.150;4.768;2023-04-10T15:38:35;15.10;99.90
16315;DHT22;8266;52.150;4.768;2023-04-10T15:41:07;15.10;99.90
16315;DHT22;8266;52.150;4.768;2023-04-10T15:43:34;15.10;99.90
16315;DHT22;8266;52.150;4.768;2023-04-10T15:46:02;15.10;99.90
16315;DHT22;8266;52.150;4.768;2023-04-10T15:48:30;15.10;99.90
16315;DHT22;8266;52.150;4.768;2023-04-10T15:50:58;15.10;99.90
16315;DHT22;8266;52.150;4.768;2023-04-10T15:53:25;15.10;99.90
16315;DHT22;8266;52.150;4.768;2023-04-10T15:55:52;15.10;99.90
16315;DHT22;8266;52.150;4.768;2023-04-10T15:58:19;15.00;99.90